Time;durP1;ratioP1;P1;durP2;ratioP2;P2;SDS_P1;SDS_P2;PMS_P1;PMS_P2;Temp;Humidity;BMP_temperature;BMP_pressure;BME280_temperature;BME280_humidity;BME280_pressure;Samples;Min_cycle;Max_cycle;Signal;HPM_P1;HPM_P2
2022/10/12 00:01:14;;;;;;;;;8.67;8.67;;;;;;;;116481;1203;25764;-62
2022/10/12 00:03:42;;;;;;;;;10.00;8.00;;;;;;;;116431;1207;25574;-62
2022/10/12 00:06:16;;;;;;;;;12.00;7.00;;;;;;;;116591;1209;25558;-62
2022/10/12 00:08:44;;;;;;;;;10.00;10.00;;;;;;;;116570;1208;25437;-62
2022/10/12 00:11:16;;;;;;;;;8.00;8.00;;;;;;;;116466;1192;25664;-62
2022/10/12 00:13:44;;;;;;;;;8.00;6.50;;;;;;;;116571;1196;25864;-63
2022/10/12 00:16:14;;;;;;;;;9.67;8.33;;;;;;;;116559;1200;25335;-63
2022/10/12 00:18:43;;;;;;;;;10.50;8.00;;;;;;;;116440;1203;25504;-63
2022/10/12 00:21:15;;;;;;;;;8.00;5.50;;;;;;;;116472;1203;25523;-63
2022/10/12 00:23:43;;;;;;;;;9.00;8.00;;;;;;;;116537;1200;24704;-62
2022/10/12 00:26:20;;;;;;;;;7.50;7.00;;;;;;;;116466;1206;25514;-62
2022/10/12 00:28:53;;;;;;;;;7.50;7.50;;;;;;;;116575;1210;24846;-62
2022/10/12 00:31:22;;;;;;;;;8.50;8.00;;;;;;;;116476;1203;25454;-63
2022/10/12 00:33:52;;;;;;;;;14.00;8.00;;;;;;;;116565;1211;25264;-63
2022/10/12 00:36:23;;;;;;;;;7.00;7.00;;;;;;;;116496;1211;24701;-62
2022/10/12 00:38:53;;;;;;;;;9.33;9.00;;;;;;;;116600;1200;25094;-61
2022/10/12 00:41:28;;;;;;;;;8.00;8.00;;;;;;;;116582;1209;25469;-62
2022/10/12 00:43:57;;;;;;;;;11.00;8.50;;;;;;;;116460;1205;26423;-63
2022/10/12 00:46:34;;;;;;;;;9.00;9.00;;;;;;;;116449;1209;25220;-62
2022/10/12 00:49:14;;;;;;;;;12.00;8.00;;;;;;;;116571;1206;25560;-63
2022/10/12 00:51:44;;;;;;;;;4.00;4.00;;;;;;;;116584;1205;25021;-62
2022/10/12 00:54:17;;;;;;;;;6.00;6.00;;;;;;;;116834;1201;25635;-62
2022/10/12 00:56:46;;;;;;;;;6.00;6.00;;;;;;;;116452;1203;25044;-62
2022/10/12 00:59:19;;;;;;;;;9.50;7.50;;;;;;;;116546;1199;24943;-64
2022/10/12 01:01:48;;;;;;;;;8.00;7.00;;;;;;;;116553;1205;25523;-63
2022/10/12 01:04:16;;;;;;;;;8.00;7.00;;;;;;;;116483;1211;25241;-63
2022/10/12 01:06:44;;;;;;;;;7.00;7.00;;;;;;;;116552;1211;25199;-63
2022/10/12 01:09:13;;;;;;;;;5.00;5.00;;;;;;;;116458;1195;25086;-63
2022/10/12 01:11:41;;;;;;;;;8.00;6.00;;;;;;;;116435;1210;25718;-63
2022/10/12 01:14:10;;;;;;;;;7.33;5.33;;;;;;;;116483;1211;24919;-63
2022/10/12 01:16:51;;;;;;;;;11.00;9.00;;;;;;;;116452;1207;25634;-62
2022/10/12 01:19:24;;;;;;;;;8.00;7.50;;;;;;;;116613;1202;25515;-63
2022/10/12 01:22:00;;;;;;;;;8.00;8.00;;;;;;;;116845;1196;25558;-63
2022/10/12 01:24:44;;;;;;;;;7.00;7.00;;;;;;;;116607;1202;24863;-62
2022/10/12 01:27:27;;;;;;;;;7.50;7.50;;;;;;;;116594;1197;24675;-63
2022/10/12 01:30:05;;;;;;;;;10.00;9.00;;;;;;;;116595;1203;25456;-63
2022/10/12 01:32:36;;;;;;;;;7.00;7.00;;;;;;;;116593;1206;25151;-63
2022/10/12 01:35:24;;;;;;;;;9.50;7.50;;;;;;;;116578;1206;25158;-63
2022/10/12 01:38:14;;;;;;;;;8.00;6.00;;;;;;;;116582;1207;26318;-63
2022/10/12 01:40:53;;;;;;;;;7.00;7.00;;;;;;;;116544;1206;25514;-63
2022/10/12 01:43:22;;;;;;;;;6.00;5.00;;;;;;;;116598;1193;25141;-63
2022/10/12 01:45:50;;;;;;;;;11.00;9.00;;;;;;;;116591;1209;25130;-62
2022/10/12 01:48:19;;;;;;;;;9.33;7.33;;;;;;;;116562;1203;25277;-63
2022/10/12 01:50:49;;;;;;;;;9.67;8.67;;;;;;;;116440;1208;25761;-63
2022/10/12 01:53:44;;;;;;;;;6.00;6.00;;;;;;;;116542;1200;25607;-63
2022/10/12 01:56:35;;;;;;;;;9.50;8.00;;;;;;;;116423;1207;24989;-63
2022/10/12 01:59:20;;;;;;;;;8.00;8.00;;;;;;;;116540;1203;24733;-63
2022/10/12 02:02:01;;;;;;;;;7.00;5.50;;;;;;;;116436;1199;24901;-63
2022/10/12 02:04:39;;;;;;;;;8.00;6.75;;;;;;;;116544;1203;25452;-62
2022/10/12 02:07:16;;;;;;;;;6.50;6.50;;;;;;;;116558;1203;25168;-63
2022/10/12 02:09:44;;;;;;;;;6.50;6.50;;;;;;;;116548;1197;24816;-63
2022/10/12 02:12:16;;;;;;;;;8.00;8.00;;;;;;;;116522;1208;24680;-63
2022/10/12 02:14:46;;;;;;;;;11.00;6.00;;;;;;;;116410;1207;25528;-63
2022/10/12 02:17:16;;;;;;;;;8.00;6.75;;;;;;;;116527;1211;25335;-62
2022/10/12 02:19:55;;;;;;;;;7.50;7.00;;;;;;;;116405;1200;25581;-63
2022/10/12 02:22:27;;;;;;;;;7.00;7.00;;;;;;;;116516;1206;24915;-62
2022/10/12 02:24:56;;;;;;;;;9.00;9.00;;;;;;;;116461;1203;25412;-62
2022/10/12 02:27:25;;;;;;;;;7.00;7.00;;;;;;;;116418;1210;24760;-62
2022/10/12 02:29:54;;;;;;;;;9.00;8.00;;;;;;;;116552;1204;25335;-62
2022/10/12 02:32:29;;;;;;;;;7.00;4.50;;;;;;;;116472;1202;25448;-62
2022/10/12 02:35:47;;;;;;;;;6.50;6.50;;;;;;;;116401;1203;25265;-62
2022/10/12 02:38:21;;;;;;;;;7.67;7.00;;;;;;;;116491;1199;25547;-62
2022/10/12 02:41:00;;;;;;;;;9.00;7.00;;;;;;;;116378;1204;25394;-63
2022/10/12 02:43:35;;;;;;;;;10.00;8.00;;;;;;;;116519;1202;25367;-60
2022/10/12 02:46:06;;;;;;;;;9.67;6.33;;;;;;;;116529;1211;25197;-60
2022/10/12 02:48:36;;;;;;;;;8.00;8.00;;;;;;;;116520;1201;25326;-60
2022/10/12 02:51:06;;;;;;;;;8.00;7.00;;;;;;;;116502;1197;24840;-60
2022/10/12 02:53:35;;;;;;;;;8.00;7.67;;;;;;;;116453;1203;25616;-60
2022/10/12 02:56:10;;;;;;;;;10.00;8.00;;;;;;;;116520;1197;25749;-60
2022/10/12 02:58:40;;;;;;;;;9.00;9.00;;;;;;;;116425;1203;25620;-63
2022/10/12 03:01:08;;;;;;;;;8.00;8.00;;;;;;;;116578;1198;24760;-62
2022/10/12 03:03:37;;;;;;;;;6.50;5.50;;;;;;;;116557;1211;26080;-63
2022/10/12 03:06:05;;;;;;;;;7.00;7.00;;;;;;;;116554;1203;25171;-62
2022/10/12 03:08:34;;;;;;;;;7.00;7.00;;;;;;;;116445;1200;25091;-63
2022/10/12 03:11:07;;;;;;;;;10.00;10.00;;;;;;;;116545;1205;25677;-62
2022/10/12 03:13:35;;;;;;;;;6.00;6.00;;;;;;;;116551;1206;24803;-62
2022/10/12 03:16:06;;;;;;;;;8.00;6.00;;;;;;;;116581;1200;25278;-63
2022/10/12 03:18:35;;;;;;;;;8.25;7.75;;;;;;;;116554;1210;25654;-63
2022/10/12 03:21:03;;;;;;;;;7.50;6.25;;;;;;;;116408;1203;25656;-62
2022/10/12 03:23:32;;;;;;;;;10.00;8.00;;;;;;;;116532;1201;25448;-62
2022/10/12 03:26:00;;;;;;;;;8.33;5.67;;;;;;;;116541;1206;25049;-62
2022/10/12 03:28:28;;;;;;;;;11.00;10.00;;;;;;;;116410;1209;25518;-63
2022/10/12 03:30:57;;;;;;;;;9.00;9.00;;;;;;;;116394;1202;25566;-62
2022/10/12 03:33:25;;;;;;;;;7.00;7.00;;;;;;;;116441;1199;24845;-62
2022/10/12 03:35:53;;;;;;;;;13.00;8.00;;;;;;;;116555;1202;25156;-62
2022/10/12 03:38:21;;;;;;;;;9.00;8.67;;;;;;;;116504;1202;24780;-62
2022/10/12 03:40:50;;;;;;;;;8.33;7.67;;;;;;;;116549;1209;25110;-62
2022/10/12 03:43:18;;;;;;;;;12.00;8.00;;;;;;;;116425;1211;25040;-63
2022/10/12 03:45:46;;;;;;;;;9.50;8.00;;;;;;;;116426;1200;24885;-62
2022/10/12 03:48:15;;;;;;;;;13.33;10.67;;;;;;;;116438;1202;25708;-62
2022/10/12 03:50:48;;;;;;;;;10.00;9.00;;;;;;;;116356;1203;25147;-62
2022/10/12 03:53:17;;;;;;;;;10.00;8.00;;;;;;;;116428;1200;25672;-62
2022/10/12 03:55:45;;;;;;;;;8.00;5.33;;;;;;;;116423;1198;25538;-62
2022/10/12 03:58:13;;;;;;;;;8.00;8.00;;;;;;;;116535;1204;24911;-62
2022/10/12 04:00:42;;;;;;;;;10.33;7.67;;;;;;;;116410;1203;24813;-62
2022/10/12 04:03:10;;;;;;;;;10.33;10.33;;;;;;;;116411;1203;25312;-62
2022/10/12 04:05:38;;;;;;;;;11.50;7.50;;;;;;;;116575;1206;25579;-62
2022/10/12 04:08:07;;;;;;;;;11.00;9.50;;;;;;;;116385;1211;26357;-63
2022/10/12 04:10:35;;;;;;;;;13.00;7.00;;;;;;;;116395;1202;24827;-62
2022/10/12 04:13:03;;;;;;;;;8.00;8.00;;;;;;;;116530;1202;25066;-62
2022/10/12 04:15:31;;;;;;;;;9.00;9.00;;;;;;;;116519;1206;25691;-62
2022/10/12 04:17:59;;;;;;;;;13.00;7.00;;;;;;;;116412;1211;25443;-62
2022/10/12 04:20:28;;;;;;;;;7.00;7.00;;;;;;;;116408;1203;25611;-62
2022/10/12 04:22:56;;;;;;;;;7.33;6.00;;;;;;;;116433;1203;25260;-62
2022/10/12 04:25:24;;;;;;;;;8.50;8.50;;;;;;;;116569;1200;25630;-62
2022/10/12 04:27:57;;;;;;;;;11.50;11.50;;;;;;;;116519;1200;25022;-62
2022/10/12 04:30:25;;;;;;;;;13.00;8.50;;;;;;;;116449;1204;26190;-62
2022/10/12 04:32:54;;;;;;;;;8.33;8.33;;;;;;;;116583;1208;25554;-62
2022/10/12 04:35:23;;;;;;;;;8.50;8.50;;;;;;;;116572;1206;25063;-62
2022/10/12 04:37:51;;;;;;;;;7.50;7.50;;;;;;;;116607;1203;25156;-62
2022/10/12 04:40:19;;;;;;;;;11.50;11.00;;;;;;;;116540;1200;25705;-62
2022/10/12 04:42:47;;;;;;;;;18.00;15.50;;;;;;;;116391;1203;25189;-62
2022/10/12 04:45:15;;;;;;;;;14.00;12.00;;;;;;;;116535;1211;25426;-63
2022/10/12 04:47:44;;;;;;;;;10.00;9.00;;;;;;;;116411;1202;25277;-63
2022/10/12 04:50:12;;;;;;;;;8.00;7.00;;;;;;;;116427;1200;24685;-62
2022/10/12 04:52:40;;;;;;;;;9.67;8.67;;;;;;;;116432;1209;26471;-63
2022/10/12 04:55:08;;;;;;;;;15.50;8.50;;;;;;;;116587;1195;24896;-62
2022/10/12 04:57:37;;;;;;;;;11.00;9.00;;;;;;;;116518;1204;24929;-63
2022/10/12 05:00:06;;;;;;;;;12.50;11.00;;;;;;;;116501;1203;25284;-64
2022/10/12 05:02:34;;;;;;;;;10.00;10.00;;;;;;;;116706;1201;24797;-63
2022/10/12 05:05:02;;;;;;;;;11.50;10.50;;;;;;;;116419;1207;25098;-63
2022/10/12 05:07:31;;;;;;;;;11.67;10.67;;;;;;;;116417;1206;25530;-62
2022/10/12 05:09:59;;;;;;;;;13.50;12.00;;;;;;;;116440;1203;25651;-63
2022/10/12 05:12:28;;;;;;;;;12.00;9.00;;;;;;;;116421;1207;25630;-64
2022/10/12 05:14:57;;;;;;;;;12.50;11.50;;;;;;;;116455;1209;25566;-63
2022/10/12 05:17:25;;;;;;;;;11.00;11.00;;;;;;;;116602;1206;24915;-62
2022/10/12 05:19:53;;;;;;;;;12.00;9.00;;;;;;;;116515;1200;26028;-64
2022/10/12 05:22:21;;;;;;;;;12.00;10.50;;;;;;;;116484;1203;25664;-63
2022/10/12 05:24:49;;;;;;;;;13.00;11.00;;;;;;;;116447;1192;24844;-63
2022/10/12 05:27:21;;;;;;;;;13.00;13.00;;;;;;;;116535;1210;25712;-63
2022/10/12 05:29:49;;;;;;;;;13.00;11.33;;;;;;;;116520;1210;25407;-63
2022/10/12 05:32:17;;;;;;;;;12.50;12.50;;;;;;;;116440;1210;25388;-63
2022/10/12 05:34:45;;;;;;;;;12.67;10.67;;;;;;;;116519;1192;25738;-61
2022/10/12 05:37:13;;;;;;;;;13.00;12.00;;;;;;;;116611;1203;25181;-61
2022/10/12 05:39:42;;;;;;;;;12.00;11.00;;;;;;;;116604;1208;24855;-62
2022/10/12 05:42:10;;;;;;;;;9.33;9.33;;;;;;;;116582;1202;25303;-62
2022/10/12 05:44:38;;;;;;;;;12.00;10.00;;;;;;;;116390;1203;25288;-65
2022/10/12 05:47:06;;;;;;;;;10.50;10.50;;;;;;;;116484;1196;25774;-62
2022/10/12 05:49:35;;;;;;;;;13.00;12.00;;;;;;;;116507;1206;25421;-62
2022/10/12 05:52:03;;;;;;;;;13.50;11.50;;;;;;;;116458;1196;25095;-62
2022/10/12 05:54:31;;;;;;;;;10.00;10.00;;;;;;;;116435;1201;25051;-62
2022/10/12 05:56:59;;;;;;;;;11.00;8.00;;;;;;;;116467;1202;25491;-60
2022/10/12 05:59:27;;;;;;;;;16.50;10.50;;;;;;;;116533;1199;25017;-60
2022/10/12 06:01:55;;;;;;;;;11.00;9.00;;;;;;;;116471;1203;25179;-60
2022/10/12 06:04:24;;;;;;;;;10.00;10.00;;;;;;;;116595;1211;25319;-59
2022/10/12 06:06:52;;;;;;;;;14.00;11.00;;;;;;;;116527;1207;25814;-61
2022/10/12 06:09:21;;;;;;;;;12.50;11.00;;;;;;;;116459;1192;25715;-62
2022/10/12 06:11:49;;;;;;;;;11.33;11.33;;;;;;;;116475;1202;24790;-62
2022/10/12 06:14:17;;;;;;;;;13.00;12.33;;;;;;;;116765;1204;25163;-62
2022/10/12 06:16:45;;;;;;;;;15.00;11.00;;;;;;;;116804;1206;26064;-62
2022/10/12 06:19:21;;;;;;;;;9.00;8.50;;;;;;;;116793;1202;24986;-64
2022/10/12 06:21:49;;;;;;;;;11.50;11.50;;;;;;;;116510;1206;25603;-62
2022/10/12 06:24:17;;;;;;;;;11.33;11.33;;;;;;;;116589;1203;25528;-63
2022/10/12 06:26:46;;;;;;;;;13.00;12.00;;;;;;;;116771;1200;25517;-63
2022/10/12 06:29:14;;;;;;;;;16.00;15.00;;;;;;;;116463;1200;25062;-63
2022/10/12 06:31:42;;;;;;;;;18.00;16.00;;;;;;;;116470;1202;25075;-61
2022/10/12 06:34:17;;;;;;;;;15.50;15.50;;;;;;;;116522;1197;25440;-61
2022/10/12 06:36:45;;;;;;;;;18.00;14.50;;;;;;;;116584;1206;24941;-61
2022/10/12 06:39:13;;;;;;;;;22.00;17.00;;;;;;;;116548;1204;25253;-62
2022/10/12 06:41:42;;;;;;;;;11.00;11.00;;;;;;;;116582;1198;25445;-63
2022/10/12 06:44:10;;;;;;;;;15.00;12.00;;;;;;;;116513;1209;25437;-63
2022/10/12 06:46:38;;;;;;;;;21.50;17.00;;;;;;;;116566;1205;25038;-60
2022/10/12 06:49:06;;;;;;;;;18.50;17.00;;;;;;;;116415;1209;25069;-61
2022/10/12 06:51:35;;;;;;;;;20.00;15.00;;;;;;;;116640;1203;25424;-63
2022/10/12 06:54:03;;;;;;;;;18.67;17.00;;;;;;;;116500;1203;25294;-64
2022/10/12 06:56:31;;;;;;;;;16.00;16.00;;;;;;;;116444;1202;24709;-64
2022/10/12 06:58:59;;;;;;;;;15.67;12.67;;;;;;;;116439;1199;25620;-63
2022/10/12 07:01:27;;;;;;;;;21.50;16.00;;;;;;;;116518;1198;24940;-64
2022/10/12 07:03:56;;;;;;;;;19.67;15.00;;;;;;;;116400;1209;24834;-64
2022/10/12 07:06:27;;;;;;;;;22.50;18.50;;;;;;;;116595;1202;25018;-63
2022/10/12 07:08:56;;;;;;;;;10.00;9.00;;;;;;;;116536;1202;25065;-63
2022/10/12 07:11:25;;;;;;;;;24.00;17.00;;;;;;;;116486;1196;25507;-70
2022/10/12 07:13:53;;;;;;;;;22.33;18.00;;;;;;;;116420;1200;25319;-65
2022/10/12 07:16:21;;;;;;;;;23.00;18.00;;;;;;;;116437;1202;25362;-64
2022/10/12 07:18:49;;;;;;;;;22.67;19.33;;;;;;;;116515;1196;25666;-65
2022/10/12 07:21:18;;;;;;;;;21.00;15.00;;;;;;;;116488;1200;25639;-65
2022/10/12 07:23:46;;;;;;;;;23.67;18.00;;;;;;;;116609;1203;24916;-67
2022/10/12 07:26:14;;;;;;;;;30.00;21.00;;;;;;;;116579;1202;25132;-65
2022/10/12 07:28:42;;;;;;;;;23.00;17.50;;;;;;;;116512;1197;25502;-65
2022/10/12 07:31:11;;;;;;;;;20.00;16.00;;;;;;;;116542;1196;25269;-65
2022/10/12 07:33:39;;;;;;;;;24.00;17.50;;;;;;;;116613;1192;25042;-66
2022/10/12 07:36:08;;;;;;;;;28.00;21.00;;;;;;;;116608;1208;24644;-66
2022/10/12 07:38:49;;;;;;;;;18.00;17.00;;;;;;;;116597;1196;24964;-71
2022/10/12 07:41:17;;;;;;;;;21.00;17.00;;;;;;;;116542;1202;25345;-69
2022/10/12 07:43:46;;;;;;;;;12.00;12.00;;;;;;;;116605;1205;24972;-69
2022/10/12 07:46:14;;;;;;;;;22.00;17.50;;;;;;;;116415;1203;25673;-69
2022/10/12 07:48:42;;;;;;;;;26.50;23.00;;;;;;;;116402;1203;25510;-63
2022/10/12 07:51:17;;;;;;;;;27.00;23.00;;;;;;;;116435;1206;25578;-69
2022/10/12 07:53:46;;;;;;;;;37.00;29.00;;;;;;;;116430;1196;25524;-69
2022/10/12 07:56:14;;;;;;;;;44.00;28.50;;;;;;;;116439;1198;25235;-68
2022/10/12 07:58:50;;;;;;;;;37.00;28.00;;;;;;;;116407;1193;25761;-67
2022/10/12 08:01:20;;;;;;;;;32.00;26.00;;;;;;;;116586;1206;25481;-68
2022/10/12 08:03:49;;;;;;;;;30.00;24.00;;;;;;;;116565;1206;25617;-64
2022/10/12 08:06:20;;;;;;;;;27.00;22.00;;;;;;;;116480;1211;25007;-66
2022/10/12 08:08:49;;;;;;;;;44.00;31.00;;;;;;;;116568;1200;25237;-66
2022/10/12 08:11:18;;;;;;;;;31.00;25.00;;;;;;;;116563;1200;25428;-64
2022/10/12 08:13:47;;;;;;;;;29.50;21.50;;;;;;;;116481;1200;24748;-66
2022/10/12 08:16:19;;;;;;;;;27.00;23.00;;;;;;;;116584;1211;25302;-66
2022/10/12 08:18:47;;;;;;;;;32.67;27.67;;;;;;;;116562;1206;25157;-66
2022/10/12 08:21:16;;;;;;;;;42.00;25.00;;;;;;;;116579;1211;24672;-66
2022/10/12 08:23:45;;;;;;;;;42.00;25.67;;;;;;;;116628;1200;24815;-66
2022/10/12 08:26:14;;;;;;;;;28.50;22.50;;;;;;;;116457;1206;25414;-66
2022/10/12 08:28:43;;;;;;;;;38.00;24.00;;;;;;;;116484;1200;24900;-66
2022/10/12 08:31:13;;;;;;;;;36.00;22.67;;;;;;;;116564;1211;24996;-67
2022/10/12 08:33:41;;;;;;;;;37.50;26.00;;;;;;;;116565;1200;25943;-67
2022/10/12 08:36:10;;;;;;;;;32.25;21.25;;;;;;;;116564;1200;25208;-66
2022/10/12 08:38:39;;;;;;;;;26.00;22.00;;;;;;;;116547;1202;25630;-66
2022/10/12 08:41:32;;;;;;;;;28.00;21.00;;;;;;;;116483;1206;25242;-67
2022/10/12 08:44:21;;;;;;;;;28.67;22.67;;;;;;;;116486;1200;24855;-66
2022/10/12 08:46:55;;;;;;;;;27.00;20.00;;;;;;;;116588;1196;25269;-66
2022/10/12 08:49:25;;;;;;;;;32.00;20.00;;;;;;;;116562;1203;24938;-68
2022/10/12 08:51:56;;;;;;;;;30.50;24.00;;;;;;;;116434;1203;26321;-66
2022/10/12 08:54:28;;;;;;;;;33.33;23.00;;;;;;;;116443;1206;24807;-66
2022/10/12 08:56:57;;;;;;;;;29.00;23.00;;;;;;;;116576;1203;25299;-65
2022/10/12 08:59:26;;;;;;;;;28.00;19.00;;;;;;;;116425;1198;25262;-65
2022/10/12 09:02:05;;;;;;;;;35.00;21.00;;;;;;;;116421;1196;24968;-66
2022/10/12 09:04:45;;;;;;;;;32.00;24.00;;;;;;;;116563;1199;24874;-69
2022/10/12 09:07:13;;;;;;;;;25.33;19.33;;;;;;;;116554;1206;25317;-68
2022/10/12 09:09:47;;;;;;;;;25.67;17.00;;;;;;;;116583;1204;25206;-66
2022/10/12 09:12:24;;;;;;;;;32.00;20.33;;;;;;;;116578;1196;24859;-62
2022/10/12 09:14:59;;;;;;;;;19.00;15.67;;;;;;;;116724;1202;24865;-63
2022/10/12 09:17:31;;;;;;;;;25.00;19.00;;;;;;;;116479;1200;24747;-63
2022/10/12 09:20:18;;;;;;;;;19.50;15.50;;;;;;;;116509;1203;25069;-57
2022/10/12 09:23:17;;;;;;;;;18.50;14.50;;;;;;;;116718;1205;24782;-59
2022/10/12 09:25:46;;;;;;;;;24.00;16.00;;;;;;;;116742;1206;24814;-57
2022/10/12 09:28:19;;;;;;;;;21.00;15.00;;;;;;;;116594;1203;24792;-58
2022/10/12 09:31:19;;;;;;;;;23.50;14.50;;;;;;;;116607;1198;24844;-58
2022/10/12 09:33:53;;;;;;;;;21.00;14.00;;;;;;;;116524;1203;24778;-58
2022/10/12 09:36:24;;;;;;;;;16.00;12.00;;;;;;;;116479;1203;25179;-57
2022/10/12 09:38:53;;;;;;;;;17.67;12.33;;;;;;;;116477;1206;25615;-57
2022/10/12 09:41:32;;;;;;;;;10.00;9.00;;;;;;;;116419;1203;24958;-58
2022/10/12 09:44:03;;;;;;;;;14.00;10.50;;;;;;;;116431;1203;25269;-57
2022/10/12 09:46:39;;;;;;;;;14.00;9.00;;;;;;;;116484;1205;25633;-60
2022/10/12 09:49:08;;;;;;;;;13.33;13.00;;;;;;;;116454;1201;24737;-57
2022/10/12 09:51:36;;;;;;;;;12.50;10.50;;;;;;;;116592;1202;25487;-58
2022/10/12 09:54:05;;;;;;;;;11.50;10.50;;;;;;;;116544;1207;24821;-60
2022/10/12 09:56:40;;;;;;;;;11.00;9.00;;;;;;;;116471;1200;24850;-58
2022/10/12 09:59:24;;;;;;;;;14.00;9.50;;;;;;;;116463;1208;24830;-60
2022/10/12 10:02:03;;;;;;;;;13.50;8.50;;;;;;;;116558;1203;25617;-60
2022/10/12 10:04:31;;;;;;;;;12.00;9.00;;;;;;;;116632;1209;25275;-61
2022/10/12 10:07:26;;;;;;;;;10.00;9.50;;;;;;;;116517;1202;25395;-61
2022/10/12 10:10:09;;;;;;;;;10.33;8.00;;;;;;;;116447;1203;25489;-60
2022/10/12 10:12:43;;;;;;;;;15.00;9.00;;;;;;;;116489;1207;25479;-60
2022/10/12 10:15:28;;;;;;;;;13.00;8.00;;;;;;;;116589;1208;25034;-61
2022/10/12 10:17:59;;;;;;;;;13.00;11.00;;;;;;;;116480;1206;25644;-61
2022/10/12 10:20:39;;;;;;;;;16.50;11.00;;;;;;;;116524;1196;25470;-61
2022/10/12 10:23:50;;;;;;;;;13.00;8.50;;;;;;;;116528;1197;24687;-61
2022/10/12 10:26:20;;;;;;;;;10.00;7.00;;;;;;;;116483;1196;25514;-61
2022/10/12 10:29:15;;;;;;;;;10.33;9.33;;;;;;;;116513;1206;25373;-59
2022/10/12 10:31:45;;;;;;;;;12.50;8.50;;;;;;;;116468;1206;25655;-59
2022/10/12 10:34:16;;;;;;;;;12.67;10.00;;;;;;;;116427;1198;25158;-59
2022/10/12 10:36:51;;;;;;;;;10.00;8.50;;;;;;;;116493;1202;25314;-59
2022/10/12 10:39:20;;;;;;;;;14.00;8.00;;;;;;;;116485;1211;25544;-58
2022/10/12 10:41:49;;;;;;;;;8.00;8.00;;;;;;;;116624;1199;24824;-59
2022/10/12 10:44:23;;;;;;;;;9.00;7.00;;;;;;;;116494;1193;25486;-59
2022/10/12 10:46:53;;;;;;;;;12.00;8.00;;;;;;;;116552;1196;25348;-59
2022/10/12 10:49:27;;;;;;;;;5.33;5.33;;;;;;;;116417;1198;25755;-59
2022/10/12 10:51:57;;;;;;;;;11.00;9.00;;;;;;;;116497;1200;25345;-59
2022/10/12 10:54:29;;;;;;;;;11.00;9.00;;;;;;;;116446;1200;25361;-59
2022/10/12 10:57:18;;;;;;;;;13.00;7.50;;;;;;;;116450;1204;25076;-59
2022/10/12 10:59:53;;;;;;;;;10.33;7.67;;;;;;;;116581;1203;25001;-59
2022/10/12 11:02:32;;;;;;;;;14.33;8.33;;;;;;;;116502;1200;25091;-60
2022/10/12 11:05:08;;;;;;;;;12.00;8.33;;;;;;;;116534;1192;25500;-61
2022/10/12 11:07:49;;;;;;;;;9.67;7.33;;;;;;;;116512;1206;24840;-60
2022/10/12 11:10:26;;;;;;;;;10.00;10.00;;;;;;;;116503;1210;25020;-61
2022/10/12 11:13:07;;;;;;;;;7.50;7.50;;;;;;;;116584;1203;25649;-60
2022/10/12 11:15:42;;;;;;;;;8.00;8.00;;;;;;;;116423;1206;24978;-61
2022/10/12 11:18:16;;;;;;;;;8.00;7.50;;;;;;;;116508;1200;25598;-60
2022/10/12 11:20:57;;;;;;;;;13.00;10.00;;;;;;;;116404;1204;25433;-62
2022/10/12 11:23:46;;;;;;;;;12.00;9.00;;;;;;;;116572;1206;25715;-63
2022/10/12 11:26:22;;;;;;;;;12.00;10.33;;;;;;;;116553;1209;24815;-62
2022/10/12 11:28:52;;;;;;;;;12.00;6.50;;;;;;;;116566;1210;24803;-62
2022/10/12 11:31:26;;;;;;;;;9.25;8.00;;;;;;;;116472;1211;25535;-62
2022/10/12 11:33:58;;;;;;;;;14.00;12.00;;;;;;;;116521;1197;25574;-62
2022/10/12 11:36:28;;;;;;;;;10.00;8.00;;;;;;;;116424;1200;25023;-62
2022/10/12 11:39:04;;;;;;;;;;;;;;;;;;116470;1199;24737;-62
2022/10/12 11:41:45;;;;;;;;;10.50;8.00;;;;;;;;116562;1204;25114;-61
2022/10/12 11:44:42;;;;;;;;;12.00;11.50;;;;;;;;116536;1203;25380;-62
2022/10/12 11:47:31;;;;;;;;;13.50;9.50;;;;;;;;116592;1196;25045;-67
2022/10/12 11:50:03;;;;;;;;;20.50;12.00;;;;;;;;116522;1196;25414;-65
2022/10/12 11:52:41;;;;;;;;;9.50;9.00;;;;;;;;116595;1203;25719;-68
2022/10/12 11:55:51;;;;;;;;;17.67;9.00;;;;;;;;116469;1205;25630;-68
2022/10/12 11:58:25;;;;;;;;;14.50;11.50;;;;;;;;116330;1205;25260;-72
2022/10/12 12:01:22;;;;;;;;;8.50;8.50;;;;;;;;116619;1203;25071;-67
2022/10/12 12:04:12;;;;;;;;;13.00;9.00;;;;;;;;116559;1203;25538;-67
2022/10/12 12:07:22;;;;;;;;;15.00;10.67;;;;;;;;116642;1203;25100;-66
2022/10/12 12:09:50;;;;;;;;;7.50;7.50;;;;;;;;116634;1206;24775;-67
2022/10/12 12:12:20;;;;;;;;;11.50;10.00;;;;;;;;116547;1206;24904;-67
2022/10/12 12:14:52;;;;;;;;;9.50;9.50;;;;;;;;116854;1196;25737;-67
2022/10/12 12:17:21;;;;;;;;;11.00;8.00;;;;;;;;116541;1201;24891;-66
2022/10/12 12:19:50;;;;;;;;;11.50;10.00;;;;;;;;116700;1200;25127;-66
2022/10/12 12:22:27;;;;;;;;;9.00;8.33;;;;;;;;116587;1197;25534;-66
2022/10/12 12:25:05;;;;;;;;;6.00;5.50;;;;;;;;116814;1203;24827;-66
2022/10/12 12:27:42;;;;;;;;;9.67;8.00;;;;;;;;116673;1204;24874;-68
2022/10/12 12:30:16;;;;;;;;;7.33;7.00;;;;;;;;116524;1206;25170;-66
2022/10/12 12:32:51;;;;;;;;;10.67;10.33;;;;;;;;116593;1209;25436;-66
2022/10/12 12:35:26;;;;;;;;;17.50;10.00;;;;;;;;116505;1202;25090;-66
2022/10/12 12:38:01;;;;;;;;;17.00;9.00;;;;;;;;116396;1196;25046;-65
2022/10/12 12:40:30;;;;;;;;;13.50;10.50;;;;;;;;116479;1202;25134;-64
2022/10/12 12:43:30;;;;;;;;;13.00;13.00;;;;;;;;116479;1203;25468;-69
2022/10/12 12:46:01;;;;;;;;;10.00;7.00;;;;;;;;116483;1200;25174;-68
2022/10/12 12:48:38;;;;;;;;;10.00;8.00;;;;;;;;116492;1206;25187;-70
2022/10/12 12:51:12;;;;;;;;;12.00;6.00;;;;;;;;116553;1203;25202;-69
2022/10/12 12:53:55;;;;;;;;;9.00;8.00;;;;;;;;116460;1206;24888;-72
2022/10/12 12:56:26;;;;;;;;;12.00;8.00;;;;;;;;116442;1203;25260;-71
2022/10/12 12:59:32;;;;;;;;;15.00;10.50;;;;;;;;116579;1193;24978;-71
2022/10/12 13:02:28;;;;;;;;;3.00;2.75;;;;;;;;116814;1206;25709;-70
2022/10/12 13:05:21;;;;;;;;;10.00;8.50;;;;;;;;116559;1204;24721;-69
2022/10/12 13:08:25;;;;;;;;;9.00;9.00;;;;;;;;116594;1202;25069;-72
2022/10/12 13:10:57;;;;;;;;;12.00;10.00;;;;;;;;116537;1206;24784;-74
2022/10/12 13:13:44;;;;;;;;;14.00;11.00;;;;;;;;116497;1203;25149;-72
2022/10/12 13:16:43;;;;;;;;;13.00;10.50;;;;;;;;116703;1208;25410;-72
2022/10/12 13:19:33;;;;;;;;;11.00;10.00;;;;;;;;116685;1204;25590;-65
2022/10/12 13:22:31;;;;;;;;;11.33;7.33;;;;;;;;116541;1200;25398;-68
2022/10/12 13:25:03;;;;;;;;;12.00;11.00;;;;;;;;116454;1210;24791;-65
2022/10/12 13:27:52;;;;;;;;;12.00;10.00;;;;;;;;116424;1210;25141;-66
2022/10/12 13:31:01;;;;;;;;;16.67;13.00;;;;;;;;116419;1192;25105;-65
2022/10/12 13:33:36;;;;;;;;;17.00;12.00;;;;;;;;116353;1205;25053;-65
2022/10/12 13:36:20;;;;;;;;;11.00;11.00;;;;;;;;116562;1210;25312;-65
2022/10/12 13:38:57;;;;;;;;;14.00;10.50;;;;;;;;116609;1208;24867;-66
2022/10/12 13:41:29;;;;;;;;;14.00;10.00;;;;;;;;116573;1204;24913;-67
2022/10/12 13:43:59;;;;;;;;;14.00;10.00;;;;;;;;116422;1203;25333;-65
2022/10/12 13:46:47;;;;;;;;;12.00;10.00;;;;;;;;116608;1203;25319;-65
2022/10/12 13:49:25;;;;;;;;;14.00;12.00;;;;;;;;116582;1197;25536;-63
2022/10/12 13:51:58;;;;;;;;;18.00;10.00;;;;;;;;116500;1205;25017;-64
2022/10/12 13:54:37;;;;;;;;;10.00;9.00;;;;;;;;116432;1207;25536;-63
2022/10/12 13:57:12;;;;;;;;;14.00;10.50;;;;;;;;116458;1202;25162;-63
2022/10/12 13:59:40;;;;;;;;;12.00;11.00;;;;;;;;116530;1206;25472;-62
2022/10/12 14:02:17;;;;;;;;;11.00;9.00;;;;;;;;116449;1200;25204;-65
2022/10/12 14:04:46;;;;;;;;;10.00;4.00;;;;;;;;116550;1203;25608;-65
2022/10/12 14:07:44;;;;;;;;;11.00;10.00;;;;;;;;116534;1200;24907;-65
2022/10/12 14:10:20;;;;;;;;;12.00;10.00;;;;;;;;116564;1207;25568;-65
2022/10/12 14:12:51;;;;;;;;;13.50;11.50;;;;;;;;116472;1211;25628;-66
2022/10/12 14:15:20;;;;;;;;;14.50;10.00;;;;;;;;116478;1196;25393;-68
2022/10/12 14:17:49;;;;;;;;;14.67;11.00;;;;;;;;116482;1198;25670;-66
2022/10/12 14:20:27;;;;;;;;;13.50;10.00;;;;;;;;116488;1196;25186;-66
2022/10/12 14:22:57;;;;;;;;;13.00;10.00;;;;;;;;116612;1202;24819;-70
2022/10/12 14:25:28;;;;;;;;;15.00;9.00;;;;;;;;116482;1199;24972;-76
2022/10/12 14:28:02;;;;;;;;;11.67;11.33;;;;;;;;116521;1211;25332;-83
2022/10/12 14:30:31;;;;;;;;;10.00;9.00;;;;;;;;116448;1211;25035;-83
2022/10/12 14:33:15;;;;;;;;;9.00;7.50;;;;;;;;116747;1202;24971;-84
2022/10/12 14:35:48;;;;;;;;;14.33;12.00;;;;;;;;116537;1205;24927;-82
2022/10/12 14:38:39;;;;;;;;;15.00;11.00;;;;;;;;116642;1195;24993;-84
2022/10/12 14:41:45;;;;;;;;;15.00;10.50;;;;;;;;116455;1202;25028;-76
2022/10/12 14:44:19;;;;;;;;;13.00;11.00;;;;;;;;116570;1203;25376;-73
2022/10/12 14:47:04;;;;;;;;;14.00;10.00;;;;;;;;116556;1196;25521;-73
2022/10/12 14:49:42;;;;;;;;;8.00;6.00;;;;;;;;116541;1203;25149;-73
2022/10/12 14:52:24;;;;;;;;;12.50;9.00;;;;;;;;116431;1203;25946;-73
2022/10/12 14:54:57;;;;;;;;;12.00;8.00;;;;;;;;116434;1203;25540;-73